Time;durP1;ratioP1;P1;durP2;ratioP2;P2;SDS_P1;SDS_P2;PMS_P1;PMS_P2;Temp;Humidity;BMP_temperature;BMP_pressure;BME280_temperature;BME280_humidity;BME280_pressure;Samples;Min_cycle;Max_cycle;Signal;HPM_P1;HPM_P2
2020/12/23 00:00:32;;;;;;;13.49;7.32;;;;;;;-1.21;69.71;99980.52;367018;108;1961907;-74
2020/12/23 00:01:39;;;;;;;16.76;9.12;;;;;;;-1.15;69.63;99982.67;334993;107;2226988;-74
2020/12/23 00:02:44;;;;;;;14.98;8.23;;;;;;;-1.17;69.46;99981.94;366367;107;1962162;-73
2020/12/23 00:03:49;;;;;;;21.69;9.53;;;;;;;-1.21;69.66;99971.73;364907;108;1960754;-73
2020/12/23 00:04:55;;;;;;;19.12;8.89;;;;;;;-1.25;69.79;99976.41;366534;108;1960684;-73
2020/12/23 00:07:16;;;;;;;20.98;9.67;;;;;;;-1.15;70.07;99973.88;352577;103;2186827;-73
2020/12/23 00:08:22;;;;;;;21.13;8.69;;;;;;;-1.29;70.04;99982.94;375722;107;1962052;-73
2020/12/23 00:09:27;;;;;;;15.93;8.04;;;;;;;-1.33;70.20;99973.53;373026;106;1961995;-73
2020/12/23 00:10:34;;;;;;;14.27;7.41;;;;;;;-1.33;70.48;99976.19;373350;106;1961850;-71
2020/12/23 00:11:39;;;;;;;16.01;7.78;;;;;;;-1.28;70.81;99978.48;331663;105;2110779;-72
2020/12/23 00:12:46;;;;;;;16.00;7.56;;;;;;;-1.22;70.96;99981.47;374462;107;1961030;-72
2020/12/23 00:13:52;;;;;;;13.88;6.56;;;;;;;-1.09;70.79;99980.49;373606;106;1960944;-72
2020/12/23 00:14:59;;;;;;;15.57;7.77;;;;;;;-0.99;70.71;99974.32;337337;106;2690023;-72
2020/12/23 00:16:06;;;;;;;15.73;7.92;;;;;;;-0.87;70.39;99971.63;374543;106;1961871;-73
2020/12/23 00:17:21;;;;;;;14.35;6.97;;;;;;;-0.76;70.10;99971.62;349864;108;2333858;-72
2020/12/23 00:18:28;;;;;;;15.69;7.57;;;;;;;-0.69;69.93;99962.16;330583;109;2585017;-71
2020/12/23 00:19:33;;;;;;;15.71;8.51;;;;;;;-0.61;69.86;99964.19;363700;110;1962033;-72
2020/12/23 00:20:40;;;;;;;18.61;9.08;;;;;;;-0.57;69.88;99962.98;365084;110;1961982;-73
2020/12/23 00:21:45;;;;;;;16.23;8.04;;;;;;;-0.58;69.75;99954.19;330384;111;2635987;-72
2020/12/23 00:22:51;;;;;;;14.24;7.02;;;;;;;-0.57;69.53;99957.67;345388;109;1962809;-72
2020/12/23 00:23:56;;;;;;;17.17;9.03;;;;;;;-0.55;69.54;99955.74;364892;110;1961959;-73
2020/12/23 00:25:03;;;;;;;15.76;8.04;;;;;;;-0.60;69.47;99963.23;364331;109;1962899;-72
2020/12/23 00:26:11;;;;;;;15.06;8.73;;;;;;;-0.65;69.57;99957.47;363210;109;1961979;-72
2020/12/23 00:27:21;;;;;;;15.22;8.17;;;;;;;-0.70;69.60;99952.53;362289;109;1962062;-73
2020/12/23 00:28:27;;;;;;;16.22;8.31;;;;;;;-0.73;69.57;99950.98;321713;113;2581984;-72
2020/12/23 00:29:33;;;;;;;14.87;8.22;;;;;;;-0.77;69.64;99948.70;345951;109;1963002;-72
2020/12/23 00:30:41;;;;;;;14.94;7.83;;;;;;;-0.83;69.71;99944.73;363528;109;1963976;-72
2020/12/23 00:31:52;;;;;;;15.53;8.43;;;;;;;-0.86;69.62;99944.16;363144;109;1961883;-73
2020/12/23 00:32:57;;;;;;;16.76;7.42;;;;;;;-0.92;69.74;99946.34;363654;110;1961953;-73
2020/12/23 00:34:03;;;;;;;16.99;8.32;;;;;;;-0.93;69.68;99957.06;364843;110;1961998;-72
2020/12/23 00:35:09;;;;;;;18.14;8.87;;;;;;;-0.98;69.73;99916.83;342235;109;2404985;-72
2020/12/23 00:36:16;;;;;;;17.59;8.93;;;;;;;-1.04;69.91;99928.78;361734;110;1964044;-72
2020/12/23 00:37:22;;;;;;;17.56;9.04;;;;;;;-1.08;69.82;99939.78;363788;110;1964931;-72
2020/12/23 00:38:27;;;;;;;19.66;9.63;;;;;;;-1.16;70.17;99933.28;326211;110;2065005;-72
2020/12/23 00:39:32;;;;;;;14.64;7.89;;;;;;;-1.19;70.27;99927.37;359118;110;1963002;-72
2020/12/23 00:40:40;;;;;;;14.00;7.21;;;;;;;-1.23;70.34;99940.03;357941;112;1961072;-72
2020/12/23 00:41:46;;;;;;;14.59;7.28;;;;;;;-1.22;70.28;99933.76;319478;107;2693048;-72
2020/12/23 00:42:51;;;;;;;14.60;7.07;;;;;;;-1.19;70.24;99922.94;361734;110;1962979;-71
2020/12/23 00:43:56;;;;;;;16.13;7.39;;;;;;;-1.16;70.30;99921.84;366424;108;1961929;-72
2020/12/23 00:45:03;;;;;;;15.63;6.99;;;;;;;-1.08;70.28;99915.92;367844;108;1961815;-71
2020/12/23 00:46:11;;;;;;;16.34;7.44;;;;;;;-1.00;70.32;99924.09;314345;110;2876925;-73
2020/12/23 00:47:18;;;;;;;14.14;6.53;;;;;;;-0.91;70.03;99912.70;358971;110;1960981;-72
2020/12/23 00:48:23;;;;;;;17.33;8.21;;;;;;;-0.80;69.93;99917.96;338762;112;2267983;-73
2020/12/23 00:49:29;;;;;;;14.44;6.84;;;;;;;-0.76;70.03;99914.09;348648;110;1964074;-72
2020/12/23 00:50:36;;;;;;;14.53;6.67;;;;;;;-0.61;69.54;99911.13;362578;110;1961998;-71
2020/12/23 00:51:42;;;;;;;14.17;6.88;;;;;;;-0.55;69.31;99910.63;332523;110;2601942;-72
2020/12/23 00:52:47;;;;;;;15.98;7.68;;;;;;;-0.53;69.09;99912.19;345427;110;1960969;-71
2020/12/23 00:53:53;;;;;;;16.59;8.28;;;;;;;-0.51;68.99;99920.00;361269;110;1961928;-73
2020/12/23 00:54:58;;;;;;;14.59;8.99;;;;;;;-0.52;68.92;99908.55;363087;110;1961993;-73
2020/12/23 00:56:06;;;;;;;14.54;7.93;;;;;;;-0.58;68.53;99914.39;346266;112;1963005;-72
2020/12/23 00:57:12;;;;;;;15.93;8.05;;;;;;;-0.64;68.68;99906.92;358051;110;1962947;-73
2020/12/23 00:58:18;;;;;;;18.54;8.91;;;;;;;-0.71;68.81;99906.61;358734;110;1961100;-73
2020/12/23 00:59:23;;;;;;;15.68;8.64;;;;;;;-0.75;68.80;99901.67;329849;110;2561027;-72
2020/12/23 01:00:30;;;;;;;16.05;7.26;;;;;;;-0.82;68.70;99889.88;358215;110;1960946;-74
2020/12/23 01:01:36;;;;;;;15.09;7.49;;;;;;;-0.83;68.44;99891.70;360624;110;1961994;-73
2020/12/23 01:02:42;;;;;;;15.44;7.87;;;;;;;-0.93;68.51;99896.08;322235;110;2218836;-73
2020/12/23 01:03:47;;;;;;;19.19;9.21;;;;;;;-1.01;68.67;99912.61;358587;110;1960835;-73
2020/12/23 01:04:53;;;;;;;18.19;9.11;;;;;;;-1.13;69.00;99909.17;362714;110;1962899;-73
2020/12/23 01:05:59;;;;;;;19.36;7.66;;;;;;;-1.21;69.33;99890.41;360159;110;1962007;-72
2020/12/23 01:07:04;;;;;;;17.42;8.64;;;;;;;-1.21;69.19;99905.47;343307;110;2329993;-72
2020/12/23 01:08:09;;;;;;;18.84;9.11;;;;;;;-1.29;69.37;99894.66;344664;110;1961923;-73
2020/12/23 01:09:15;;;;;;;19.19;9.20;;;;;;;-1.36;69.79;99900.42;357327;112;1961900;-73
2020/12/23 01:10:22;;;;;;;18.14;8.60;;;;;;;-1.40;69.94;99893.70;341567;110;2193077;-73
2020/12/23 01:11:28;;;;;;;18.04;9.69;;;;;;;-1.43;70.16;99896.61;361785;106;1960861;-73
2020/12/23 01:12:33;;;;;;;15.08;7.89;;;;;;;-1.46;70.34;99895.99;366436;108;1961984;-73
2020/12/23 01:13:39;;;;;;;15.07;7.75;;;;;;;-1.44;70.40;99883.47;366788;108;1961934;-73
2020/12/23 01:14:46;;;;;;;13.61;7.04;;;;;;;-1.43;70.45;99882.49;331286;105;2679154;-73
2020/12/23 01:15:51;;;;;;;13.98;6.43;;;;;;;-1.39;70.54;99884.78;345862;110;1959752;-72
2020/12/23 01:16:57;;;;;;;13.85;6.81;;;;;;;-1.29;70.48;99886.70;361630;110;1961865;-73
2020/12/23 01:18:03;;;;;;;13.11;6.57;;;;;;;-1.20;70.34;99880.63;360649;110;1961960;-73
2020/12/23 01:19:09;;;;;;;13.01;6.17;;;;;;;-1.12;70.14;99880.84;338128;110;2393061;-72
2020/12/23 01:20:16;;;;;;;17.48;7.14;;;;;;;-1.02;70.15;99878.29;360509;110;1961629;-73
2020/12/23 01:21:21;;;;;;;11.88;6.23;;;;;;;-0.93;69.96;99857.17;362067;110;1960943;-74
2020/12/23 01:22:27;;;;;;;16.26;7.15;;;;;;;-0.80;69.42;99864.08;361653;110;1961864;-71
2020/12/23 01:23:32;;;;;;;15.28;7.39;;;;;;;-0.73;69.52;99862.61;330303;112;2561973;-73
2020/12/23 01:24:38;;;;;;;12.80;6.61;;;;;;;-0.66;69.07;99863.78;348955;110;1961963;-72
2020/12/23 01:25:43;;;;;;;14.26;6.47;;;;;;;-0.63;68.46;99860.87;359830;110;1961917;-72
2020/12/23 01:26:49;;;;;;;14.21;7.48;;;;;;;-0.64;68.45;99860.98;359198;110;1961994;-74
2020/12/23 01:27:55;;;;;;;12.79;6.96;;;;;;;-0.72;68.50;99866.93;336061;110;2860997;-72
2020/12/23 01:29:00;;;;;;;17.01;8.33;;;;;;;-0.71;68.36;99863.33;353423;110;1961983;-73
2020/12/23 01:30:06;;;;;;;14.83;7.70;;;;;;;-0.78;68.50;99862.15;361087;110;1963910;-72
2020/12/23 01:31:13;;;;;;;17.27;9.50;;;;;;;-0.86;68.71;99861.95;361527;110;1962049;-74
2020/12/23 01:32:18;;;;;;;15.43;8.42;;;;;;;-0.89;68.80;99861.23;333715;110;1961954;-73
2020/12/23 01:33:24;;;;;;;15.27;8.92;;;;;;;-0.92;68.88;99858.00;359808;110;1961933;-74
2020/12/23 01:34:29;;;;;;;17.88;7.98;;;;;;;-0.96;69.11;99853.91;359802;110;1961997;-73
2020/12/23 01:35:35;;;;;;;15.53;7.86;;;;;;;-1.00;69.10;99855.15;357407;110;1961958;-72
2020/12/23 01:36:50;;;;;;;15.57;7.18;;;;;;;-1.04;69.29;99843.10;359257;110;1961851;-71
2020/12/23 01:37:55;;;;;;;16.04;7.72;;;;;;;-1.07;69.47;99853.97;329125;112;1971082;-73
2020/12/23 01:39:01;;;;;;;16.92;8.44;;;;;;;-1.08;69.45;99839.04;359673;110;1962012;-72
2020/12/23 01:40:07;;;;;;;17.04;8.88;;;;;;;-1.12;69.54;99855.17;358713;113;1961877;-73
2020/12/23 01:41:13;;;;;;;18.22;8.55;;;;;;;-1.13;69.55;99855.31;328317;110;2655921;-72
2020/12/23 01:42:18;;;;;;;14.99;7.69;;;;;;;-1.13;69.60;99834.95;343002;110;1961954;-73
2020/12/23 01:43:24;;;;;;;17.27;8.81;;;;;;;-1.17;69.65;99846.75;355341;114;1961977;-71
2020/12/23 01:44:29;;;;;;;16.29;8.99;;;;;;;-1.20;69.83;99830.27;359961;112;1961998;-73
2020/12/23 01:45:37;;;;;;;17.79;8.81;;;;;;;-1.22;69.99;99835.69;359286;112;1964174;-73
2020/12/23 01:46:44;;;;;;;18.32;9.48;;;;;;;-1.22;70.06;99824.25;361583;112;1961030;-73
2020/12/23 01:47:53;;;;;;;15.87;8.15;;;;;;;-1.24;70.17;99832.34;318955;114;2689845;-73
2020/12/23 01:49:03;;;;;;;13.98;7.23;;;;;;;-1.27;70.74;99824.66;357289;110;1961962;-73
2020/12/23 01:50:15;;;;;;;12.52;6.29;;;;;;;-1.26;70.76;99818.37;322079;112;2634819;-74
2020/12/23 01:51:20;;;;;;;13.83;6.36;;;;;;;-1.16;70.58;99818.47;360206;112;1961923;-73
2020/12/23 01:52:27;;;;;;;14.11;6.79;;;;;;;-1.08;70.53;99820.48;352997;115;1961941;-73
2020/12/23 01:53:33;;;;;;;12.52;6.08;;;;;;;-0.99;70.48;99815.23;319572;108;2730932;-73
2020/12/23 01:54:38;;;;;;;13.05;6.31;;;;;;;-0.89;70.61;99815.31;318558;118;1961970;-73
2020/12/23 01:55:46;;;;;;;12.92;6.76;;;;;;;-0.77;70.26;99810.77;341002;118;1961962;-72
2020/12/23 01:56:55;;;;;;;13.67;6.17;;;;;;;-0.70;69.75;99817.25;315204;118;2498971;-72
2020/12/23 01:58:01;;;;;;;12.45;6.87;;;;;;;-0.58;69.92;99810.05;301905;118;2742955;-73
2020/12/23 01:59:07;;;;;;;13.11;6.63;;;;;;;-0.49;69.31;99815.41;335251;118;1961995;-72
2020/12/23 02:00:13;;;;;;;15.34;7.91;;;;;;;-0.46;69.16;99801.05;335514;120;1962918;-74
2020/12/23 02:01:21;;;;;;;14.21;7.43;;;;;;;-0.42;69.08;99801.61;334374;120;1961998;-72
2020/12/23 02:02:35;;;;;;;15.88;9.07;;;;;;;-0.43;68.97;99798.13;336249;120;1961856;-72
2020/12/23 02:03:40;;;;;;;16.08;8.77;;;;;;;-0.49;68.90;99801.31;338223;120;1961929;-72
2020/12/23 02:04:45;;;;;;;16.23;7.99;;;;;;;-0.54;68.94;99806.17;337803;120;1962000;-72
2020/12/23 02:05:51;;;;;;;16.78;7.91;;;;;;;-0.56;68.85;99797.49;334614;120;1962051;-72
2020/12/23 02:06:57;;;;;;;16.78;9.26;;;;;;;-0.59;68.77;99792.45;322695;120;2307991;-72
2020/12/23 02:08:02;;;;;;;16.56;8.39;;;;;;;-0.68;69.05;99802.88;323645;120;1962890;-72
2020/12/23 02:09:10;;;;;;;17.70;8.58;;;;;;;-0.75;69.30;99798.23;336066;120;1963927;-73
2020/12/23 02:10:16;;;;;;;17.21;8.66;;;;;;;-0.78;69.31;99801.98;318780;120;1961830;-72
2020/12/23 02:11:22;;;;;;;19.45;9.43;;;;;;;-0.86;69.56;99796.48;340217;114;1963001;-72
2020/12/23 02:12:28;;;;;;;17.78;9.53;;;;;;;-0.86;69.54;99800.95;357169;111;1961894;-73
2020/12/23 02:13:42;;;;;;;20.01;9.61;;;;;;;-0.91;69.80;99794.21;342418;114;2268957;-73
2020/12/23 02:14:56;;;;;;;18.76;9.69;;;;;;;-0.97;69.88;99794.74;326482;111;2731997;31
2020/12/23 02:16:03;;;;;;;16.68;8.90;;;;;;;-0.97;70.16;99796.56;335430;114;2859963;-71
2020/12/23 02:17:08;;;;;;;17.45;8.67;;;;;;;-1.00;70.24;99796.82;349172;113;1961945;-72
2020/12/23 02:18:13;;;;;;;16.79;7.86;;;;;;;-1.02;70.39;99796.09;339151;113;1963981;-72
2020/12/23 02:19:20;;;;;;;14.72;7.30;;;;;;;-1.02;70.56;99799.59;365777;111;1962055;-72
2020/12/23 02:20:37;;;;;;;16.61;7.55;;;;;;;-0.96;70.57;99788.45;357699;111;1961963;-72
2020/12/23 02:21:44;;;;;;;13.75;6.09;;;;;;;-0.83;70.44;99779.47;351848;115;1963981;-73
2020/12/23 02:22:51;;;;;;;13.94;6.77;;;;;;;-0.70;70.13;99785.41;343249;113;2871966;-72
2020/12/23 02:23:56;;;;;;;14.39;7.44;;;;;;;-0.68;69.89;99786.97;351999;115;1961994;-73
2020/12/23 02:25:15;;;;;;;14.94;7.27;;;;;;;-0.59;70.01;99784.50;351291;115;1962975;-72
2020/12/23 02:26:20;;;;;;;15.72;8.16;;;;;;;-0.50;69.72;99789.86;363857;107;1960819;-72
2020/12/23 02:27:26;;;;;;;17.43;7.27;;;;;;;-0.39;69.27;99782.80;354109;113;1962009;-72
2020/12/23 02:28:32;;;;;;;16.16;7.81;;;;;;;-0.36;69.04;99779.87;358185;113;1960935;-72
2020/12/23 02:29:42;;;;;;;14.08;7.43;;;;;;;-0.36;68.94;99783.36;322442;113;2215001;-72
2020/12/23 02:30:50;;;;;;;19.20;9.72;;;;;;;-0.37;68.83;99781.69;350071;113;1962049;-71
2020/12/23 02:31:56;;;;;;;18.26;9.94;;;;;;;-0.47;69.04;99778.15;319123;113;2566069;-72
2020/12/23 02:33:03;;;;;;;19.98;9.77;;;;;;;-0.52;69.13;99778.53;343517;117;1961069;-72
2020/12/23 02:34:08;;;;;;;17.88;8.82;;;;;;;-0.53;69.04;99776.86;346297;115;1961981;-73
2020/12/23 02:35:14;;;;;;;16.77;9.49;;;;;;;-0.59;69.17;99777.38;329318;113;2231982;-73
2020/12/23 02:36:21;;;;;;;17.93;9.50;;;;;;;-0.65;69.27;99769.95;352531;115;1961951;-73
2020/12/23 02:37:27;;;;;;;20.15;9.48;;;;;;;-0.71;69.55;99775.79;352361;115;1961981;-72
2020/12/23 02:38:32;;;;;;;19.72;10.03;;;;;;;-0.75;69.78;99763.75;335093;115;2269032;-73
2020/12/23 02:39:39;;;;;;;19.24;9.76;;;;;;;-0.74;69.59;99763.63;334862;115;1964786;-71
2020/12/23 02:40:46;;;;;;;20.08;9.60;;;;;;;-0.77;69.61;99758.56;329720;117;2330941;-71
2020/12/23 02:41:54;;;;;;;20.54;11.01;;;;;;;-0.78;69.63;99764.02;335738;113;1965822;-74
2020/12/23 02:43:00;;;;;;;19.12;10.48;;;;;;;-0.84;69.87;99765.37;341007;115;2215965;-71
2020/12/23 02:44:16;;;;;;;20.57;9.44;;;;;;;-0.90;70.21;99761.45;337984;114;1962027;-72
2020/12/23 02:45:22;;;;;;;18.33;9.21;;;;;;;-0.91;70.19;99765.05;352686;114;1962951;-72
2020/12/23 02:46:28;;;;;;;16.39;8.36;;;;;;;-0.95;70.43;99763.64;331751;115;2294916;-73
2020/12/23 02:47:34;;;;;;;16.80;7.94;;;;;;;-0.97;70.67;99759.44;328015;115;1961981;-72
2020/12/23 02:48:39;;;;;;;15.87;7.66;;;;;;;-0.97;70.82;99762.09;348142;115;1962985;-73
2020/12/23 02:49:46;;;;;;;17.15;8.04;;;;;;;-0.87;70.78;99763.00;352952;115;1963899;-71
2020/12/23 02:50:52;;;;;;;15.82;8.14;;;;;;;-0.77;70.75;99763.03;308747;115;2226920;-73
2020/12/23 02:51:57;;;;;;;15.09;7.78;;;;;;;-0.64;70.46;99757.52;328467;115;1963906;-72
2020/12/23 02:53:03;;;;;;;16.72;7.41;;;;;;;-0.56;70.10;99760.35;361323;107;1960803;-73
2020/12/23 02:54:08;;;;;;;15.29;6.74;;;;;;;-0.45;69.79;99757.60;365268;111;1961933;-72
2020/12/23 02:55:14;;;;;;;17.57;7.75;;;;;;;-0.33;69.25;99759.20;360647;111;1963916;-71
2020/12/23 02:56:21;;;;;;;18.99;9.04;;;;;;;-0.25;68.96;99751.41;334962;112;1961917;-72
2020/12/23 02:57:26;;;;;;;18.28;9.24;;;;;;;-0.22;68.79;99759.09;360074;112;1964977;-73
2020/12/23 02:58:31;;;;;;;19.86;9.65;;;;;;;-0.32;68.66;99750.28;363346;112;1961926;-72
2020/12/23 02:59:39;;;;;;;19.80;10.70;;;;;;;-0.33;68.77;99751.23;363099;111;1961960;-71
2020/12/23 03:00:57;;;;;;;23.38;10.56;;;;;;;-0.38;68.79;99756.10;362073;112;1962014;-71
2020/12/23 03:02:03;;;;;;;20.83;10.62;;;;;;;-0.42;68.88;99749.40;340368;107;2222032;-71
2020/12/23 03:03:08;;;;;;;20.43;10.32;;;;;;;-0.49;69.05;99756.20;366783;104;1960845;-72
2020/12/23 03:04:14;;;;;;;22.00;11.41;;;;;;;-0.53;69.19;99752.12;354541;113;1961967;-71
2020/12/23 03:05:20;;;;;;;21.54;11.37;;;;;;;-0.60;69.28;99746.52;353157;115;1961957;-71
2020/12/23 03:06:26;;;;;;;21.54;11.18;;;;;;;-0.63;69.44;99738.83;351846;113;1961950;-71
2020/12/23 03:07:32;;;;;;;22.47;11.23;;;;;;;-0.65;69.37;99742.59;357278;113;1961041;-71
2020/12/23 03:08:38;;;;;;;22.67;11.84;;;;;;;-0.70;69.53;99746.46;356494;111;1961940;-72
2020/12/23 03:09:43;;;;;;;23.47;12.27;;;;;;;-0.72;69.61;99734.30;331656;113;2525045;-74
2020/12/23 03:10:49;;;;;;;24.08;11.71;;;;;;;-0.76;69.85;99747.00;356599;107;1964026;-70
2020/12/23 03:11:54;;;;;;;26.39;12.39;;;;;;;-0.77;69.83;99733.86;363542;111;1961890;-72
2020/12/23 03:12:59;;;;;;;24.82;11.71;;;;;;;-0.82;70.08;99739.58;369406;108;1960884;-72
2020/12/23 03:14:06;;;;;;;22.10;10.77;;;;;;;-0.87;70.47;99733.83;374640;108;1964931;-71
2020/12/23 03:15:12;;;;;;;22.08;10.32;;;;;;;-0.86;70.39;99739.96;358065;108;1963987;-70
2020/12/23 03:16:18;;;;;;;18.62;8.82;;;;;;;-0.84;70.45;99732.72;371189;108;1961977;-71
2020/12/23 03:17:24;;;;;;;21.89;9.86;;;;;;;-0.78;70.52;99730.37;374261;108;1962906;-72
2020/12/23 03:18:31;;;;;;;19.41;8.97;;;;;;;-0.72;70.51;99729.00;337054;108;2651927;-70
2020/12/23 03:19:37;;;;;;;18.49;8.53;;;;;;;-0.64;70.38;99715.91;369132;106;1961974;-70
2020/12/23 03:20:44;;;;;;;18.63;9.22;;;;;;;-0.55;70.36;99717.78;338478;106;2547928;-71
2020/12/23 03:21:49;;;;;;;17.32;8.46;;;;;;;-0.46;70.19;99716.96;348167;108;1962071;-72
2020/12/23 03:22:54;;;;;;;19.22;9.89;;;;;;;-0.35;69.79;99709.88;374495;107;1961831;-72
2020/12/23 03:24:00;;;;;;;16.86;8.17;;;;;;;-0.30;69.58;99711.14;373633;108;1961953;-72
2020/12/23 03:25:06;;;;;;;19.38;10.10;;;;;;;-0.17;69.29;99718.87;373947;108;1960750;-72
2020/12/23 03:26:12;;;;;;;21.44;10.29;;;;;;;-0.10;68.73;99722.67;337877;108;1976181;-72
2020/12/23 03:27:18;;;;;;;20.42;11.15;;;;;;;-0.11;68.72;99725.45;368379;110;1962020;-72
2020/12/23 03:28:24;;;;;;;22.15;10.87;;;;;;;-0.16;68.43;99728.53;372269;108;1961779;-71
2020/12/23 03:29:29;;;;;;;19.79;10.83;;;;;;;-0.19;68.69;99725.30;374486;107;1962906;-72
2020/12/23 03:30:35;;;;;;;20.73;11.49;;;;;;;-0.24;68.58;99721.25;359283;108;1962016;-72
2020/12/23 03:31:41;;;;;;;22.37;12.29;;;;;;;-0.30;68.68;99716.45;375046;108;1962925;-73
2020/12/23 03:32:47;;;;;;;20.67;11.48;;;;;;;-0.35;68.72;99726.64;374465;108;1961814;-72
2020/12/23 03:33:56;;;;;;;23.37;11.49;;;;;;;-0.42;68.99;99725.52;374421;108;1961958;-72
2020/12/23 03:35:01;;;;;;;21.29;10.88;;;;;;;-0.45;69.04;99723.11;355892;113;1960903;-72
2020/12/23 03:36:07;;;;;;;21.86;11.98;;;;;;;-0.47;69.04;99727.73;356205;109;2210955;-72
2020/12/23 03:37:12;;;;;;;21.66;12.11;;;;;;;-0.50;69.14;99725.34;357083;109;1962993;-72
2020/12/23 03:38:18;;;;;;;24.72;12.70;;;;;;;-0.53;69.19;99721.14;367069;109;1961992;-72
2020/12/23 03:39:24;;;;;;;24.47;11.64;;;;;;;-0.58;69.41;99728.66;355787;112;1962976;-73
2020/12/23 03:40:31;;;;;;;20.43;10.72;;;;;;;-0.58;69.44;99714.53;345664;107;1966022;-74
2020/12/23 03:41:39;;;;;;;22.13;11.01;;;;;;;-0.58;69.38;99722.49;366856;111;1961964;-73
2020/12/23 03:42:57;;;;;;;22.03;12.44;;;;;;;-0.61;69.42;99718.29;355268;112;1961957;-72
2020/12/23 03:44:03;;;;;;;22.83;11.98;;;;;;;-0.62;69.39;99715.79;310407;107;2801959;-72
2020/12/23 03:45:17;;;;;;;21.48;11.14;;;;;;;-0.66;69.66;99720.53;333841;115;1961966;-73
2020/12/23 03:46:23;;;;;;;24.86;13.41;;;;;;;-0.68;69.83;99725.13;361640;112;1960845;-74
2020/12/23 03:47:29;;;;;;;24.14;12.02;;;;;;;-0.72;69.83;99723.69;360915;112;1961988;-73
2020/12/23 03:48:34;;;;;;;27.10;13.83;;;;;;;-0.75;69.80;99719.49;361726;112;1960969;-73
2020/12/23 03:49:40;;;;;;;24.43;12.14;;;;;;;-0.77;70.21;99723.25;338530;111;2451033;-73
2020/12/23 03:50:49;;;;;;;24.86;12.50;;;;;;;-0.76;70.06;99722.30;361230;112;1961948;-73
2020/12/23 03:52:05;;;;;;;18.30;9.83;;;;;;;-0.78;70.22;99724.23;329120;112;2490027;-73
2020/12/23 03:53:10;;;;;;;17.84;9.71;;;;;;;-0.79;70.49;99707.48;371868;107;1960651;-73
2020/12/23 03:54:16;;;;;;;19.26;9.99;;;;;;;-0.78;70.77;99716.27;367742;108;1961054;-74
2020/12/23 03:55:22;;;;;;;16.87;8.15;;;;;;;-0.67;70.61;99714.36;381323;106;1962912;-75
2020/12/23 03:56:28;;;;;;;17.61;8.84;;;;;;;-0.58;70.33;99715.40;339310;108;1966078;-74
2020/12/23 03:57:33;;;;;;;17.11;8.44;;;;;;;-0.53;70.40;99702.57;380170;106;1961863;-74
2020/12/23 03:58:39;;;;;;;15.03;8.02;;;;;;;-0.42;70.54;99711.37;379730;106;1960920;-74
2020/12/23 03:59:44;;;;;;;17.89;8.59;;;;;;;-0.32;69.87;99699.85;376879;106;1962010;-73
2020/12/23 04:00:51;;;;;;;19.79;9.33;;;;;;;-0.17;69.90;99712.73;380484;106;1961964;-75
2020/12/23 04:01:56;;;;;;;15.59;8.12;;;;;;;-0.09;69.51;99708.41;328689;109;2132842;-74
2020/12/23 04:03:02;;;;;;;17.73;9.69;;;;;;;-0.01;69.02;99708.56;377636;106;1961995;-74
2020/12/23 04:04:10;;;;;;;18.03;9.40;;;;;;;-0.02;68.41;99719.34;357334;106;2880994;-74
2020/12/23 04:05:16;;;;;;;18.73;11.08;;;;;;;0.01;68.28;99699.64;372856;108;1960809;-74
2020/12/23 04:06:23;;;;;;;22.89;10.80;;;;;;;-0.07;68.22;99698.50;348824;106;2889035;-74
2020/12/23 04:07:29;;;;;;;20.46;10.86;;;;;;;-0.17;68.40;99705.59;359368;106;1961948;-74
2020/12/23 04:08:34;;;;;;;20.47;11.19;;;;;;;-0.27;68.81;99705.56;375517;106;1962013;-74
2020/12/23 04:09:40;;;;;;;20.37;11.42;;;;;;;-0.34;68.96;99699.14;381503;106;1961975;-74
2020/12/23 04:10:45;;;;;;;21.90;12.06;;;;;;;-0.40;69.15;99702.31;380843;106;1961859;-74
2020/12/23 04:11:51;;;;;;;18.95;10.63;;;;;;;-0.43;69.20;99694.63;355835;106;2412963;-74
2020/12/23 04:12:57;;;;;;;23.21;11.94;;;;;;;-0.45;69.26;99685.95;357462;106;1962967;-74
2020/12/23 04:14:03;;;;;;;24.33;13.19;;;;;;;-0.46;69.31;99692.25;377707;106;1963968;-74
2020/12/23 04:15:10;;;;;;;20.53;12.03;;;;;;;-0.55;69.61;99687.76;343219;106;2657015;-74
2020/12/23 04:16:18;;;;;;;24.72;12.29;;;;;;;-0.57;69.61;99687.87;381706;106;1961983;-74
2020/12/23 04:17:23;;;;;;;22.03;11.19;;;;;;;-0.61;69.80;99685.62;365267;104;2308877;-74
2020/12/23 04:18:28;;;;;;;21.61;11.23;;;;;;;-0.60;69.76;99695.28;360376;104;1961950;-74
2020/12/23 04:19:34;;;;;;;23.87;11.06;;;;;;;-0.64;69.82;99689.37;378316;106;1962032;-74
2020/12/23 04:20:42;;;;;;;21.58;11.97;;;;;;;-0.67;69.95;99687.00;365523;106;2294899;-75
2020/12/23 04:21:47;;;;;;;22.33;11.44;;;;;;;-0.73;70.13;99688.37;369188;109;1963007;-74
2020/12/23 04:22:52;;;;;;;21.13;10.42;;;;;;;-0.74;70.36;99689.36;380968;106;1961824;-73
2020/12/23 04:23:57;;;;;;;20.24;10.21;;;;;;;-0.74;70.42;99689.36;381290;106;1962010;-74
2020/12/23 04:25:07;;;;;;;17.38;8.64;;;;;;;-0.74;70.42;99691.15;378354;106;1961919;-74
2020/12/23 04:26:13;;;;;;;17.99;9.13;;;;;;;-0.69;70.56;99679.19;381758;106;1961946;-74
2020/12/23 04:27:19;;;;;;;16.24;8.06;;;;;;;-0.60;70.51;99682.84;342847;106;2670967;-74
2020/12/23 04:28:24;;;;;;;19.52;8.41;;;;;;;-0.52;70.43;99682.18;374643;106;1964042;-74
2020/12/23 04:29:30;;;;;;;15.72;7.81;;;;;;;-0.47;70.31;99679.97;376869;106;1961952;-74
2020/12/23 04:30:37;;;;;;;15.74;7.68;;;;;;;-0.34;70.05;99683.22;376870;106;1961945;-74
2020/12/23 04:31:43;;;;;;;16.00;7.74;;;;;;;-0.22;69.61;99690.07;335364;106;2715961;-74
2020/12/23 04:32:48;;;;;;;16.58;8.63;;;;;;;-0.15;69.37;99690.38;379969;106;1963961;-74
2020/12/23 04:33:54;;;;;;;16.00;8.13;;;;;;;-0.08;69.29;99674.73;379426;106;1961967;-74
2020/12/23 04:35:03;;;;;;;15.16;7.59;;;;;;;0.01;68.45;99691.67;379401;106;1961996;-74
2020/12/23 04:36:07;;;;;;;15.54;7.60;;;;;;;0.02;68.23;99686.20;377008;106;1961923;-74
2020/12/23 04:37:14;;;;;;;14.30;8.06;;;;;;;-0.04;68.15;99681.45;374393;106;1961918;-74
2020/12/23 04:38:19;;;;;;;16.69;8.39;;;;;;;-0.13;68.40;99687.57;349514;106;2212921;-74
2020/12/23 04:39:25;;;;;;;16.94;9.01;;;;;;;-0.16;68.36;99686.06;367125;106;1961935;-74
2020/12/23 04:40:31;;;;;;;17.83;9.73;;;;;;;-0.24;68.40;99684.08;364480;111;1961996;-74
2020/12/23 04:41:37;;;;;;;18.74;9.25;;;;;;;-0.32;68.72;99691.02;377527;106;1962047;-74
2020/12/23 04:42:42;;;;;;;16.86;8.56;;;;;;;-0.39;68.84;99674.81;352431;108;2456986;-74
2020/12/23 04:43:49;;;;;;;19.15;8.88;;;;;;;-0.45;69.12;99689.47;369345;106;1961791;-74
2020/12/23 04:44:56;;;;;;;14.91;8.82;;;;;;;-0.49;69.29;99690.70;381207;106;1962007;-74
2020/12/23 04:46:02;;;;;;;20.39;10.93;;;;;;;-0.51;69.34;99694.46;353936;106;1961921;-74
2020/12/23 04:47:12;;;;;;;17.88;10.06;;;;;;;-0.59;69.40;99681.03;378509;106;1961928;-74
2020/12/23 04:48:24;;;;;;;20.61;10.18;;;;;;;-0.64;69.90;99685.89;378908;106;1963909;-75
2020/12/23 04:49:34;;;;;;;17.26;9.33;;;;;;;-0.71;69.90;99689.09;379077;106;1962919;-75
2020/12/23 04:50:44;;;;;;;20.60;10.17;;;;;;;-0.70;70.04;99679.31;381512;105;1961966;-75
2020/12/23 04:51:54;;;;;;;19.77;9.54;;;;;;;-0.75;70.38;99684.17;369618;108;1962847;-75
2020/12/23 04:53:00;;;;;;;16.03;7.99;;;;;;;-0.81;70.37;99676.77;374483;106;1961940;-75
2020/12/23 04:54:08;;;;;;;15.68;7.24;;;;;;;-0.79;70.72;99662.39;370674;109;1961917;-74
2020/12/23 04:55:14;;;;;;;14.90;7.01;;;;;;;-0.72;70.69;99673.30;374370;108;1963972;-75
2020/12/23 04:56:21;;;;;;;13.87;7.27;;;;;;;-0.66;70.66;99672.78;364369;110;1963893;-75
2020/12/23 04:57:28;;;;;;;17.35;7.38;;;;;;;-0.54;70.52;99679.65;365398;110;1961927;-75
2020/12/23 04:58:35;;;;;;;13.83;6.87;;;;;;;-0.47;70.43;99675.49;371128;107;1961840;-75
2020/12/23 04:59:41;;;;;;;17.19;7.09;;;;;;;-0.36;70.05;99669.23;347364;109;1962002;-75
2020/12/23 05:00:49;;;;;;;15.13;7.32;;;;;;;-0.22;69.60;99681.27;367649;110;1961930;-76
2020/12/23 05:02:00;;;;;;;16.15;7.25;;;;;;;-0.12;69.22;99668.03;340282;110;2514987;-76
2020/12/23 05:03:05;;;;;;;18.68;8.35;;;;;;;-0.09;69.11;99673.89;365708;111;1962018;-75